DLH8RY LKPR-EDDF
Flight info
| Callsign | DLH8RY |
|---|---|
| Flight time | 0h 55m |
| Altitude | 24000 |
| Route | BALTU DCT DONAD DCT RAPET T170 GAPLA T178 KERAX KERAX4D |
| Aircraft | A320/M-SDE3FGHIRWY/LB1 |
Departure
| Time | 2026-04-14 14:42 |
|---|---|
| Airport | Václav Havel Airport Prague (LKPR) |
Arrival
| Time | 2026-04-14 15:38 |
|---|---|
| Airport | Frankfurt Main Airport (EDDF) |
| Time | Latitude | Longitude | Altitude | Speed | Heading |
|---|---|---|---|---|---|
| 2026-04-14 14:14 | 50.10563 | 14.26348 | 1178 ft | 0 kts | 33° |
| 2026-04-14 14:30 | 50.10551 | 14.26336 | 1175 ft | 4 kts | 27° |
| 2026-04-14 14:30 | 50.10526 | 14.26321 | 1175 ft | 4 kts | 5° |
| 2026-04-14 14:30 | 50.10501 | 14.26327 | 1175 ft | 4 kts | 319° |
| 2026-04-14 14:31 | 50.10495 | 14.26335 | 1174 ft | 0 kts | 304° |
| 2026-04-14 14:31 | 50.10496 | 14.26334 | 1174 ft | 0 kts | 304° |
| 2026-04-14 14:32 | 50.10497 | 14.26332 | 1174 ft | 0 kts | 304° |
| 2026-04-14 14:32 | 50.10497 | 14.26331 | 1173 ft | 0 kts | 304° |
| 2026-04-14 14:34 | 50.10498 | 14.26329 | 1175 ft | 1 kts | 304° |
| 2026-04-14 14:34 | 50.10506 | 14.26311 | 1177 ft | 3 kts | 304° |
| 2026-04-14 14:35 | 50.10523 | 14.26270 | 1175 ft | 6 kts | 302° |
| 2026-04-14 14:35 | 50.10532 | 14.26201 | 1173 ft | 7 kts | 279° |
| 2026-04-14 14:35 | 50.10533 | 14.26120 | 1179 ft | 7 kts | 264° |
| 2026-04-14 14:35 | 50.10528 | 14.26068 | 1178 ft | 4 kts | 259° |
| 2026-04-14 14:36 | 50.10518 | 14.26019 | 1183 ft | 2 kts | 240° |
| 2026-04-14 14:36 | 50.10506 | 14.26009 | 1184 ft | 1 kts | 197° |
| 2026-04-14 14:36 | 50.10486 | 14.26019 | 1185 ft | 6 kts | 152° |
| 2026-04-14 14:36 | 50.10452 | 14.26077 | 1186 ft | 6 kts | 127° |
| 2026-04-14 14:37 | 50.10424 | 14.26134 | 1187 ft | 8 kts | 127° |
| 2026-04-14 14:37 | 50.10382 | 14.26223 | 1189 ft | 12 kts | 127° |
| 2026-04-14 14:37 | 50.10328 | 14.26334 | 1191 ft | 12 kts | 127° |
| 2026-04-14 14:37 | 50.10285 | 14.26423 | 1193 ft | 9 kts | 126° |
| 2026-04-14 14:38 | 50.10253 | 14.26490 | 1194 ft | 10 kts | 127° |
| 2026-04-14 14:38 | 50.10196 | 14.26609 | 1196 ft | 14 kts | 127° |
| 2026-04-14 14:38 | 50.10132 | 14.26739 | 1198 ft | 19 kts | 126° |
| 2026-04-14 14:38 | 50.10058 | 14.26894 | 1202 ft | 16 kts | 127° |
| 2026-04-14 14:39 | 50.09996 | 14.27022 | 1204 ft | 13 kts | 127° |
| 2026-04-14 14:39 | 50.09946 | 14.27127 | 1206 ft | 11 kts | 127° |
| 2026-04-14 14:39 | 50.09898 | 14.27226 | 1204 ft | 12 kts | 127° |
| 2026-04-14 14:39 | 50.09841 | 14.27334 | 1205 ft | 17 kts | 134° |
| 2026-04-14 14:40 | 50.09760 | 14.27459 | 1206 ft | 15 kts | 136° |
| 2026-04-14 14:40 | 50.09691 | 14.27565 | 1207 ft | 13 kts | 136° |
| 2026-04-14 14:40 | 50.09629 | 14.27646 | 1208 ft | 10 kts | 158° |
| 2026-04-14 14:40 | 50.09562 | 14.27603 | 1211 ft | 16 kts | 215° |
| 2026-04-14 14:41 | 50.09473 | 14.27505 | 1216 ft | 15 kts | 215° |
| 2026-04-14 14:41 | 50.09423 | 14.27396 | 1218 ft | 13 kts | 284° |
| 2026-04-14 14:41 | 50.09522 | 14.27185 | 1214 ft | 48 kts | 307° |
| 2026-04-14 14:41 | 50.09862 | 14.26476 | 1210 ft | 113 kts | 307° |
| 2026-04-14 14:42 | 50.10445 | 14.25268 | 1216 ft | 161 kts | 309° |
| 2026-04-14 14:42 | 50.11137 | 14.23881 | 1878 ft | 165 kts | 310° |
| 2026-04-14 14:42 | 50.11885 | 14.22362 | 2371 ft | 188 kts | 308° |
| 2026-04-14 14:42 | 50.12720 | 14.20635 | 2795 ft | 211 kts | 309° |
| 2026-04-14 14:43 | 50.13654 | 14.18699 | 3265 ft | 236 kts | 309° |
| 2026-04-14 14:43 | 50.14323 | 14.17307 | 3665 ft | 248 kts | 308° |
| 2026-04-14 14:43 | 50.15358 | 14.15147 | 4544 ft | 256 kts | 307° |
| 2026-04-14 14:43 | 50.16454 | 14.12861 | 5457 ft | 262 kts | 306° |
| 2026-04-14 14:44 | 50.17553 | 14.10562 | 6403 ft | 266 kts | 304° |
| 2026-04-14 14:44 | 50.18662 | 14.08243 | 7292 ft | 269 kts | 304° |
| 2026-04-14 14:44 | 50.19715 | 14.05818 | 8123 ft | 271 kts | 293° |
| 2026-04-14 14:44 | 50.20179 | 14.02972 | 8937 ft | 273 kts | 271° |
| 2026-04-14 14:45 | 50.20201 | 13.99982 | 9757 ft | 278 kts | 269° |
| 2026-04-14 14:45 | 50.20202 | 13.96914 | 10376 ft | 291 kts | 269° |
| 2026-04-14 14:45 | 50.20197 | 13.93638 | 10674 ft | 312 kts | 269° |
| 2026-04-14 14:45 | 50.20188 | 13.90202 | 11331 ft | 320 kts | 269° |
| 2026-04-14 14:46 | 50.20179 | 13.86707 | 12146 ft | 324 kts | 269° |
| 2026-04-14 14:46 | 50.20172 | 13.83170 | 12892 ft | 329 kts | 269° |
| 2026-04-14 14:46 | 50.20166 | 13.79587 | 13659 ft | 331 kts | 269° |
| 2026-04-14 14:46 | 50.20160 | 13.75977 | 14361 ft | 335 kts | 269° |
| 2026-04-14 14:47 | 50.20154 | 13.72326 | 14993 ft | 339 kts | 269° |
| 2026-04-14 14:47 | 50.20148 | 13.68628 | 15632 ft | 342 kts | 269° |
| 2026-04-14 14:47 | 50.20140 | 13.64890 | 16263 ft | 346 kts | 269° |
| 2026-04-14 14:47 | 50.20128 | 13.61121 | 16928 ft | 349 kts | 269° |
| 2026-04-14 14:48 | 50.20114 | 13.57320 | 17579 ft | 352 kts | 269° |
| 2026-04-14 14:48 | 50.20099 | 13.53487 | 18226 ft | 355 kts | 269° |
| 2026-04-14 14:48 | 50.20085 | 13.49611 | 18808 ft | 359 kts | 269° |
| 2026-04-14 14:48 | 50.20071 | 13.45706 | 19368 ft | 362 kts | 269° |
| 2026-04-14 14:49 | 50.20053 | 13.41764 | 19916 ft | 365 kts | 269° |
| 2026-04-14 14:49 | 50.20033 | 13.37797 | 20483 ft | 367 kts | 269° |
| 2026-04-14 14:49 | 50.20012 | 13.33801 | 21029 ft | 369 kts | 269° |
| 2026-04-14 14:49 | 50.19991 | 13.29780 | 21584 ft | 372 kts | 268° |
| 2026-04-14 14:50 | 50.19967 | 13.25732 | 22101 ft | 374 kts | 268° |
| 2026-04-14 14:50 | 50.19942 | 13.21656 | 22614 ft | 377 kts | 268° |
| 2026-04-14 14:50 | 50.19916 | 13.17555 | 23133 ft | 379 kts | 268° |
| 2026-04-14 14:50 | 50.19887 | 13.13430 | 23649 ft | 382 kts | 268° |
| 2026-04-14 14:51 | 50.19855 | 13.09272 | 24043 ft | 384 kts | 268° |
| 2026-04-14 14:51 | 50.19824 | 13.05103 | 24142 ft | 381 kts | 268° |
| 2026-04-14 14:51 | 50.19794 | 13.01017 | 24162 ft | 374 kts | 268° |
| 2026-04-14 14:51 | 50.19761 | 12.96970 | 24171 ft | 372 kts | 268° |
| 2026-04-14 14:52 | 50.19725 | 12.92946 | 24166 ft | 372 kts | 268° |
| 2026-04-14 14:52 | 50.19690 | 12.88915 | 24163 ft | 371 kts | 268° |
| 2026-04-14 14:52 | 50.19655 | 12.84882 | 24171 ft | 371 kts | 268° |
| 2026-04-14 14:52 | 50.19616 | 12.80910 | 24162 ft | 371 kts | 268° |
| 2026-04-14 14:53 | 50.19576 | 12.76877 | 24165 ft | 371 kts | 268° |
| 2026-04-14 14:53 | 50.19537 | 12.72850 | 24162 ft | 371 kts | 268° |
| 2026-04-14 14:53 | 50.19497 | 12.68819 | 24163 ft | 371 kts | 268° |
| 2026-04-14 14:53 | 50.19456 | 12.64788 | 24162 ft | 371 kts | 268° |
| 2026-04-14 14:54 | 50.19410 | 12.60763 | 24158 ft | 371 kts | 268° |
| 2026-04-14 14:54 | 50.19359 | 12.56733 | 24164 ft | 371 kts | 268° |
| 2026-04-14 14:54 | 50.19306 | 12.52706 | 24156 ft | 371 kts | 268° |
| 2026-04-14 14:54 | 50.19251 | 12.48677 | 24155 ft | 371 kts | 268° |
| 2026-04-14 14:55 | 50.19196 | 12.44645 | 24162 ft | 372 kts | 268° |
| 2026-04-14 14:55 | 50.19139 | 12.40621 | 24153 ft | 372 kts | 268° |
| 2026-04-14 14:55 | 50.19111 | 12.36586 | 24161 ft | 372 kts | 271° |
| 2026-04-14 14:55 | 50.19453 | 12.32579 | 24159 ft | 374 kts | 282° |
| 2026-04-14 14:56 | 50.21125 | 12.24877 | 24159 ft | 375 kts | 288° |
| 2026-04-14 14:56 | 50.22013 | 12.21049 | 24161 ft | 375 kts | 288° |
| 2026-04-14 14:56 | 50.22901 | 12.17209 | 24181 ft | 376 kts | 288° |
| 2026-04-14 14:57 | 50.23782 | 12.13374 | 24179 ft | 376 kts | 288° |
| 2026-04-14 14:57 | 50.24659 | 12.09530 | 24186 ft | 376 kts | 288° |
| 2026-04-14 14:57 | 50.25536 | 12.05682 | 24186 ft | 376 kts | 288° |
| 2026-04-14 14:57 | 50.26411 | 12.01842 | 24177 ft | 376 kts | 288° |
| 2026-04-14 14:58 | 50.27290 | 11.97993 | 24187 ft | 376 kts | 288° |
| 2026-04-14 14:58 | 50.28170 | 11.94153 | 24174 ft | 376 kts | 288° |
| 2026-04-14 14:58 | 50.29055 | 11.90301 | 24175 ft | 376 kts | 288° |
| 2026-04-14 14:58 | 50.29937 | 11.86450 | 24180 ft | 376 kts | 288° |
| 2026-04-14 14:59 | 50.30819 | 11.82594 | 24190 ft | 376 kts | 288° |
| 2026-04-14 14:59 | 50.31698 | 11.78738 | 24190 ft | 376 kts | 288° |
| 2026-04-14 14:59 | 50.32577 | 11.74882 | 24176 ft | 376 kts | 288° |
| 2026-04-14 14:59 | 50.33458 | 11.71026 | 24183 ft | 376 kts | 288° |
| 2026-04-14 15:00 | 50.34337 | 11.67167 | 24180 ft | 376 kts | 288° |
| 2026-04-14 15:00 | 50.35212 | 11.63307 | 24180 ft | 376 kts | 288° |
| 2026-04-14 15:00 | 50.36083 | 11.59435 | 24176 ft | 376 kts | 288° |
| 2026-04-14 15:00 | 50.36952 | 11.55573 | 24185 ft | 377 kts | 288° |
| 2026-04-14 15:01 | 50.37811 | 11.51752 | 24187 ft | 377 kts | 288° |
| 2026-04-14 15:01 | 50.38680 | 11.47885 | 24183 ft | 377 kts | 288° |
| 2026-04-14 15:01 | 50.39551 | 11.44008 | 24184 ft | 377 kts | 288° |
| 2026-04-14 15:01 | 50.40418 | 11.40137 | 24175 ft | 377 kts | 288° |
| 2026-04-14 15:02 | 50.41281 | 11.36265 | 24174 ft | 376 kts | 288° |
| 2026-04-14 15:02 | 50.42144 | 11.32386 | 24179 ft | 376 kts | 288° |
| 2026-04-14 15:02 | 50.43007 | 11.28512 | 24180 ft | 376 kts | 288° |
| 2026-04-14 15:02 | 50.43870 | 11.24636 | 24177 ft | 376 kts | 288° |
| 2026-04-14 15:03 | 50.44729 | 11.20764 | 24172 ft | 376 kts | 288° |
| 2026-04-14 15:03 | 50.45586 | 11.16878 | 24185 ft | 376 kts | 287° |
| 2026-04-14 15:03 | 50.46441 | 11.12999 | 24198 ft | 376 kts | 287° |
| 2026-04-14 15:03 | 50.47298 | 11.09117 | 24196 ft | 376 kts | 287° |
| 2026-04-14 15:04 | 50.48152 | 11.05241 | 24198 ft | 376 kts | 287° |
| 2026-04-14 15:04 | 50.49002 | 11.01363 | 24202 ft | 375 kts | 287° |
| 2026-04-14 15:04 | 50.49848 | 10.97491 | 24190 ft | 375 kts | 287° |
| 2026-04-14 15:04 | 50.50694 | 10.93613 | 24192 ft | 375 kts | 287° |
| 2026-04-14 15:05 | 50.51537 | 10.89740 | 24198 ft | 375 kts | 287° |
| 2026-04-14 15:05 | 50.52382 | 10.85860 | 24188 ft | 375 kts | 287° |
| 2026-04-14 15:05 | 50.53225 | 10.81990 | 24188 ft | 375 kts | 287° |
| 2026-04-14 15:05 | 50.54080 | 10.78119 | 24194 ft | 375 kts | 288° |
| 2026-04-14 15:06 | 50.54955 | 10.74252 | 24189 ft | 375 kts | 288° |
| 2026-04-14 15:06 | 50.55835 | 10.70397 | 24197 ft | 375 kts | 288° |
| 2026-04-14 15:06 | 50.56715 | 10.66544 | 24191 ft | 374 kts | 288° |
| 2026-04-14 15:06 | 50.57595 | 10.62688 | 24189 ft | 374 kts | 287° |
| 2026-04-14 15:07 | 50.58460 | 10.58892 | 24196 ft | 373 kts | 287° |
| 2026-04-14 15:07 | 50.59332 | 10.55046 | 24199 ft | 373 kts | 287° |
| 2026-04-14 15:07 | 50.60200 | 10.51204 | 24191 ft | 373 kts | 287° |
| 2026-04-14 15:07 | 50.60817 | 10.47268 | 24076 ft | 368 kts | 273° |
| 2026-04-14 15:08 | 50.60663 | 10.43312 | 23843 ft | 361 kts | 255° |
| 2026-04-14 15:08 | 50.59848 | 10.39594 | 23595 ft | 359 kts | 248° |
| 2026-04-14 15:08 | 50.58942 | 10.35944 | 23341 ft | 358 kts | 248° |
| 2026-04-14 15:08 | 50.58034 | 10.32293 | 23108 ft | 357 kts | 248° |
| 2026-04-14 15:09 | 50.57127 | 10.28665 | 22854 ft | 356 kts | 248° |
| 2026-04-14 15:09 | 50.56219 | 10.25040 | 22615 ft | 356 kts | 248° |
| 2026-04-14 15:09 | 50.55313 | 10.21419 | 22381 ft | 356 kts | 248° |
| 2026-04-14 15:09 | 50.54410 | 10.17810 | 22128 ft | 355 kts | 248° |
| 2026-04-14 15:10 | 50.53508 | 10.14199 | 21865 ft | 354 kts | 248° |
| 2026-04-14 15:10 | 50.52608 | 10.10607 | 21599 ft | 352 kts | 249° |
| 2026-04-14 15:10 | 50.51710 | 10.07036 | 21340 ft | 351 kts | 248° |
| 2026-04-14 15:10 | 50.50812 | 10.03470 | 21087 ft | 351 kts | 248° |
| 2026-04-14 15:11 | 50.49917 | 9.99913 | 20834 ft | 349 kts | 249° |
| 2026-04-14 15:11 | 50.49026 | 9.96373 | 20577 ft | 348 kts | 249° |
| 2026-04-14 15:11 | 50.48134 | 9.92848 | 20324 ft | 347 kts | 249° |
| 2026-04-14 15:11 | 50.47244 | 9.89332 | 20068 ft | 346 kts | 249° |
| 2026-04-14 15:12 | 50.46356 | 9.85828 | 19826 ft | 345 kts | 249° |
| 2026-04-14 15:12 | 50.45468 | 9.82336 | 19583 ft | 343 kts | 248° |
| 2026-04-14 15:12 | 50.44585 | 9.78873 | 19334 ft | 341 kts | 248° |
| 2026-04-14 15:12 | 50.43705 | 9.75418 | 19092 ft | 340 kts | 249° |
| 2026-04-14 15:13 | 50.42818 | 9.71940 | 18851 ft | 345 kts | 249° |
| 2026-04-14 15:13 | 50.41939 | 9.68498 | 18615 ft | 345 kts | 250° |
| 2026-04-14 15:13 | 50.41045 | 9.65007 | 18362 ft | 344 kts | 250° |
| 2026-04-14 15:13 | 50.40155 | 9.61533 | 18092 ft | 343 kts | 250° |
| 2026-04-14 15:14 | 50.39266 | 9.58075 | 17816 ft | 342 kts | 249° |
| 2026-04-14 15:14 | 50.38380 | 9.54627 | 17548 ft | 340 kts | 249° |
| 2026-04-14 15:14 | 50.37500 | 9.51206 | 17292 ft | 337 kts | 249° |
| 2026-04-14 15:14 | 50.36625 | 9.47812 | 17031 ft | 335 kts | 249° |
| 2026-04-14 15:15 | 50.35756 | 9.44436 | 16770 ft | 333 kts | 249° |
| 2026-04-14 15:15 | 50.34890 | 9.41073 | 16508 ft | 333 kts | 249° |
| 2026-04-14 15:15 | 50.34024 | 9.37723 | 16256 ft | 330 kts | 249° |
| 2026-04-14 15:15 | 50.33159 | 9.34397 | 16002 ft | 328 kts | 249° |
| 2026-04-14 15:16 | 50.32302 | 9.31104 | 15751 ft | 326 kts | 248° |
| 2026-04-14 15:16 | 50.31446 | 9.27818 | 15500 ft | 325 kts | 248° |
| 2026-04-14 15:16 | 50.30593 | 9.24538 | 15253 ft | 325 kts | 249° |
| 2026-04-14 15:16 | 50.29738 | 9.21265 | 15006 ft | 327 kts | 249° |
| 2026-04-14 15:17 | 50.28874 | 9.17964 | 14765 ft | 328 kts | 249° |
| 2026-04-14 15:17 | 50.28009 | 9.14668 | 14520 ft | 326 kts | 248° |
| 2026-04-14 15:17 | 50.27154 | 9.11410 | 14278 ft | 323 kts | 248° |
| 2026-04-14 15:17 | 50.26336 | 9.08141 | 14045 ft | 322 kts | 250° |
| 2026-04-14 15:18 | 50.25567 | 9.04875 | 13779 ft | 320 kts | 251° |
| 2026-04-14 15:18 | 50.24819 | 9.01611 | 13513 ft | 317 kts | 251° |
| 2026-04-14 15:18 | 50.24083 | 8.98367 | 13244 ft | 317 kts | 251° |
| 2026-04-14 15:18 | 50.23344 | 8.95137 | 12977 ft | 315 kts | 250° |
| 2026-04-14 15:19 | 50.22599 | 8.91920 | 12721 ft | 315 kts | 250° |
| 2026-04-14 15:19 | 50.21852 | 8.88720 | 12462 ft | 313 kts | 250° |
| 2026-04-14 15:19 | 50.21106 | 8.85539 | 12201 ft | 310 kts | 250° |
| 2026-04-14 15:19 | 50.20367 | 8.82395 | 12035 ft | 309 kts | 250° |
| 2026-04-14 15:20 | 50.19621 | 8.79241 | 11905 ft | 309 kts | 250° |
| 2026-04-14 15:20 | 50.18885 | 8.76134 | 11781 ft | 310 kts | 250° |
| 2026-04-14 15:20 | 50.18130 | 8.72948 | 11658 ft | 308 kts | 250° |
| 2026-04-14 15:20 | 50.17387 | 8.69811 | 11529 ft | 307 kts | 250° |
| 2026-04-14 15:21 | 50.16647 | 8.66688 | 11405 ft | 306 kts | 250° |
| 2026-04-14 15:21 | 50.15908 | 8.63580 | 11288 ft | 306 kts | 249° |
| 2026-04-14 15:21 | 50.15174 | 8.60511 | 11151 ft | 306 kts | 249° |
| 2026-04-14 15:21 | 50.14419 | 8.57346 | 10956 ft | 306 kts | 249° |
| 2026-04-14 15:22 | 50.13696 | 8.54304 | 10715 ft | 304 kts | 249° |
| 2026-04-14 15:22 | 50.12962 | 8.51227 | 10471 ft | 301 kts | 249° |
| 2026-04-14 15:22 | 50.12220 | 8.48131 | 10225 ft | 301 kts | 249° |
| 2026-04-14 15:22 | 50.11505 | 8.45150 | 9977 ft | 295 kts | 249° |
| 2026-04-14 15:23 | 50.10795 | 8.42194 | 9701 ft | 288 kts | 249° |
| 2026-04-14 15:23 | 50.10099 | 8.39306 | 9431 ft | 282 kts | 249° |
| 2026-04-14 15:23 | 50.09411 | 8.36470 | 9137 ft | 280 kts | 249° |
| 2026-04-14 15:23 | 50.08726 | 8.33658 | 8995 ft | 279 kts | 250° |
| 2026-04-14 15:24 | 50.08031 | 8.30796 | 8862 ft | 280 kts | 250° |
| 2026-04-14 15:24 | 50.07352 | 8.27996 | 8731 ft | 280 kts | 250° |
| 2026-04-14 15:24 | 50.06665 | 8.25157 | 8604 ft | 281 kts | 250° |
| 2026-04-14 15:24 | 50.05977 | 8.22318 | 8472 ft | 280 kts | 250° |
| 2026-04-14 15:25 | 50.05289 | 8.19492 | 8339 ft | 279 kts | 250° |
| 2026-04-14 15:25 | 50.04599 | 8.16674 | 8207 ft | 279 kts | 250° |
| 2026-04-14 15:25 | 50.03908 | 8.13858 | 8091 ft | 279 kts | 250° |
| 2026-04-14 15:25 | 50.03218 | 8.11043 | 7943 ft | 279 kts | 250° |
| 2026-04-14 15:26 | 50.02528 | 8.08225 | 7831 ft | 278 kts | 250° |
| 2026-04-14 15:26 | 50.01841 | 8.05411 | 7704 ft | 278 kts | 250° |
| 2026-04-14 15:26 | 50.01157 | 8.02612 | 7496 ft | 276 kts | 250° |
| 2026-04-14 15:26 | 50.00473 | 7.99815 | 7370 ft | 278 kts | 251° |
| 2026-04-14 15:27 | 49.99784 | 7.97000 | 7247 ft | 279 kts | 250° |
| 2026-04-14 15:27 | 49.99099 | 7.94195 | 7121 ft | 278 kts | 251° |
| 2026-04-14 15:27 | 49.98411 | 7.91394 | 6994 ft | 278 kts | 249° |
| 2026-04-14 15:27 | 49.97361 | 7.88902 | 6869 ft | 278 kts | 223° |
| 2026-04-14 15:28 | 49.95686 | 7.87416 | 6749 ft | 280 kts | 195° |
| 2026-04-14 15:28 | 49.93763 | 7.87277 | 6620 ft | 279 kts | 168° |
| 2026-04-14 15:28 | 49.91990 | 7.88426 | 6482 ft | 277 kts | 141° |
| 2026-04-14 15:28 | 49.90769 | 7.90648 | 6135 ft | 270 kts | 113° |
| 2026-04-14 15:29 | 49.90130 | 7.93362 | 5795 ft | 268 kts | 105° |
| 2026-04-14 15:29 | 49.89606 | 7.96129 | 5465 ft | 267 kts | 104° |
| 2026-04-14 15:29 | 49.89100 | 7.98882 | 5128 ft | 266 kts | 103° |
| 2026-04-14 15:29 | 49.88836 | 8.01686 | 4788 ft | 260 kts | 85° |
| 2026-04-14 15:30 | 49.89239 | 8.04320 | 4639 ft | 245 kts | 60° |
| 2026-04-14 15:30 | 49.90335 | 8.06146 | 4574 ft | 228 kts | 37° |
| 2026-04-14 15:30 | 49.91438 | 8.07777 | 4561 ft | 213 kts | 53° |
| 2026-04-14 15:30 | 49.92140 | 8.09754 | 4556 ft | 201 kts | 64° |
| 2026-04-14 15:31 | 49.92646 | 8.11687 | 4546 ft | 188 kts | 66° |
| 2026-04-14 15:31 | 49.93112 | 8.13577 | 4554 ft | 187 kts | 66° |
| 2026-04-14 15:31 | 49.93572 | 8.15459 | 4555 ft | 187 kts | 66° |
| 2026-04-14 15:31 | 49.94031 | 8.17340 | 4552 ft | 186 kts | 67° |
| 2026-04-14 15:32 | 49.94335 | 8.18585 | 4553 ft | 186 kts | 67° |
| 2026-04-14 15:32 | 49.94944 | 8.21086 | 4559 ft | 186 kts | 67° |
| 2026-04-14 15:32 | 49.95252 | 8.22354 | 4487 ft | 186 kts | 67° |
| 2026-04-14 15:32 | 49.95709 | 8.24232 | 4285 ft | 186 kts | 67° |
| 2026-04-14 15:33 | 49.96167 | 8.26119 | 4039 ft | 185 kts | 67° |
| 2026-04-14 15:33 | 49.96618 | 8.27979 | 3799 ft | 184 kts | 66° |
| 2026-04-14 15:33 | 49.97069 | 8.29837 | 3549 ft | 184 kts | 68° |
| 2026-04-14 15:33 | 49.97516 | 8.31681 | 3305 ft | 183 kts | 66° |
| 2026-04-14 15:34 | 49.97944 | 8.33451 | 3066 ft | 182 kts | 67° |
| 2026-04-14 15:34 | 49.98406 | 8.35361 | 2807 ft | 183 kts | 68° |
| 2026-04-14 15:34 | 49.98846 | 8.37183 | 2557 ft | 179 kts | 66° |
| 2026-04-14 15:34 | 49.99280 | 8.38981 | 2327 ft | 177 kts | 67° |
| 2026-04-14 15:35 | 49.99706 | 8.40746 | 2075 ft | 172 kts | 67° |
| 2026-04-14 15:35 | 50.00114 | 8.42440 | 1856 ft | 164 kts | 66° |
| 2026-04-14 15:35 | 50.00494 | 8.44021 | 1669 ft | 149 kts | 67° |
| 2026-04-14 15:35 | 50.00840 | 8.45457 | 1465 ft | 137 kts | 66° |
| 2026-04-14 15:36 | 50.01166 | 8.46815 | 1260 ft | 128 kts | 66° |
| 2026-04-14 15:36 | 50.01465 | 8.48066 | 1094 ft | 122 kts | 66° |
| 2026-04-14 15:36 | 50.01760 | 8.49322 | 857 ft | 124 kts | 66° |
| 2026-04-14 15:36 | 50.02069 | 8.50592 | 678 ft | 129 kts | 67° |
| 2026-04-14 15:37 | 50.02390 | 8.51917 | 593 ft | 134 kts | 67° |
| 2026-04-14 15:37 | 50.02711 | 8.53242 | 415 ft | 127 kts | 66° |
| 2026-04-14 15:37 | 50.03003 | 8.54446 | 332 ft | 102 kts | 70° |
| 2026-04-14 15:37 | 50.03187 | 8.55225 | 347 ft | 52 kts | 70° |
| 2026-04-14 15:38 | 50.03271 | 8.55561 | 347 ft | 25 kts | 62° |
| 2026-04-14 15:38 | 50.03366 | 8.55762 | 348 ft | 21 kts | 46° |
| 2026-04-14 15:38 | 50.03466 | 8.55897 | 345 ft | 18 kts | 41° |
| 2026-04-14 15:38 | 50.03524 | 8.55969 | 358 ft | 0 kts | 40° |
| 2026-04-14 15:39 | 50.03548 | 8.56000 | 354 ft | 11 kts | 40° |
| 2026-04-14 15:39 | 50.03617 | 8.56093 | 356 ft | 15 kts | 44° |
| 2026-04-14 15:39 | 50.03676 | 8.56244 | 360 ft | 19 kts | 68° |
| 2026-04-14 15:40 | 50.03728 | 8.56461 | 361 ft | 24 kts | 69° |
| 2026-04-14 15:40 | 50.03789 | 8.56716 | 357 ft | 26 kts | 70° |
| 2026-04-14 15:40 | 50.03853 | 8.56984 | 362 ft | 27 kts | 69° |
| 2026-04-14 15:40 | 50.03917 | 8.57246 | 362 ft | 25 kts | 70° |
| 2026-04-14 15:41 | 50.03977 | 8.57499 | 366 ft | 25 kts | 69° |
| 2026-04-14 15:41 | 50.04037 | 8.57753 | 369 ft | 26 kts | 70° |
| 2026-04-14 15:41 | 50.04101 | 8.58017 | 369 ft | 26 kts | 69° |
| 2026-04-14 15:41 | 50.04177 | 8.58159 | 368 ft | 17 kts | 27° |
| 2026-04-14 15:42 | 50.04294 | 8.58199 | 368 ft | 19 kts | 341° |
| 2026-04-14 15:42 | 50.04416 | 8.58129 | 369 ft | 19 kts | 340° |
| 2026-04-14 15:42 | 50.04544 | 8.58085 | 367 ft | 13 kts | 35° |
| 2026-04-14 15:42 | 50.04588 | 8.58207 | 368 ft | 13 kts | 70° |
| 2026-04-14 15:43 | 50.04616 | 8.58326 | 371 ft | 11 kts | 69° |
| 2026-04-14 15:43 | 50.04629 | 8.58381 | 372 ft | 0 kts | 70° |